Time;durP1;ratioP1;P1;durP2;ratioP2;P2;SDS_P1;SDS_P2;PMS_P1;PMS_P2;Temp;Humidity;BMP_temperature;BMP_pressure;BME280_temperature;BME280_humidity;BME280_pressure;Samples;Min_cycle;Max_cycle;Signal;HPM_P1;HPM_P2
2021/09/09 00:01:06;;;;;;;10.90;7.70;;;;;;;13.69;93.27;98134.00;5026778;28;20117;-67
2021/09/09 00:03:32;;;;;;;13.23;7.85;;;;;;;13.80;93.31;98127.41;5026444;28;20221;-67
2021/09/09 00:05:57;;;;;;;14.75;7.72;;;;;;;13.76;93.87;98131.06;5026741;28;20116;-67
2021/09/09 00:08:23;;;;;;;11.55;7.20;;;;;;;13.86;93.45;98127.13;5026677;28;20093;-67
2021/09/09 00:10:48;;;;;;;13.38;8.13;;;;;;;13.92;93.58;98120.75;5026620;28;20030;-67
2021/09/09 00:13:13;;;;;;;12.82;7.60;;;;;;;13.84;93.84;98117.53;5026596;28;20025;-67
2021/09/09 00:15:39;;;;;;;11.55;7.43;;;;;;;13.81;93.57;98112.38;5026491;28;20080;-67
2021/09/09 00:18:04;;;;;;;12.05;7.25;;;;;;;13.87;93.62;98118.28;5026549;28;20079;-67
2021/09/09 00:20:30;;;;;;;12.00;7.45;;;;;;;13.87;93.59;98118.28;5026431;28;20028;-67
2021/09/09 00:22:55;;;;;;;10.55;7.43;;;;;;;13.81;93.75;98118.53;5026343;28;20085;-67
2021/09/09 00:25:21;;;;;;;14.23;8.82;;;;;;;13.88;93.60;98108.53;5026348;28;20064;-67
2021/09/09 00:27:46;;;;;;;11.23;7.60;;;;;;;13.77;93.51;98109.00;5026375;28;20041;-67
2021/09/09 00:30:12;;;;;;;15.60;8.15;;;;;;;13.86;93.93;98105.13;5026210;28;20022;-67
2021/09/09 00:32:38;;;;;;;14.77;8.57;;;;;;;13.82;94.31;98108.78;5026245;28;20365;-67
2021/09/09 00:35:03;;;;;;;13.07;7.80;;;;;;;13.69;94.64;98107.56;5026185;28;20093;-67
2021/09/09 00:37:29;;;;;;;13.50;7.43;;;;;;;13.81;94.01;98105.31;5026186;28;20036;-67
2021/09/09 00:39:54;;;;;;;14.35;8.18;;;;;;;13.86;94.10;98102.47;5026298;28;20045;-67
2021/09/09 00:42:20;;;;;;;12.93;8.40;;;;;;;13.89;94.26;98110.28;5025967;28;20026;-67
2021/09/09 00:44:45;;;;;;;10.88;7.22;;;;;;;13.76;93.90;98103.78;5025196;28;20348;-67
2021/09/09 00:47:12;;;;;;;17.33;7.68;;;;;;;13.80;94.03;98105.38;5025789;28;20025;-67
2021/09/09 00:49:42;;;;;;;12.20;7.20;;;;;;;13.76;93.41;98101.13;5025903;28;20026;-67
2021/09/09 00:52:09;;;;;;;10.85;7.38;;;;;;;13.74;93.61;98097.66;5025845;28;20086;-67
2021/09/09 00:54:35;;;;;;;12.40;8.35;;;;;;;13.63;94.04;98094.56;5025850;28;20049;-67
2021/09/09 00:57:03;;;;;;;14.77;8.07;;;;;;;13.57;94.32;98093.03;5025752;28;20076;-67
2021/09/09 00:59:34;;;;;;;12.73;8.20;;;;;;;13.65;94.70;98090.09;5025664;28;20321;-67
2021/09/09 01:02:00;;;;;;;11.90;8.25;;;;;;;13.67;94.27;98099.69;5025506;28;20085;-67
2021/09/09 01:04:26;;;;;;;11.60;7.18;;;;;;;13.66;94.92;98097.09;5025568;28;20286;-67
2021/09/09 01:06:52;;;;;;;13.20;8.15;;;;;;;13.57;94.66;98094.84;5025540;28;20017;-67
2021/09/09 01:09:17;;;;;;;11.35;7.53;;;;;;;13.72;94.50;98096.88;5025544;28;20018;-67
2021/09/09 01:11:43;;;;;;;12.77;7.88;;;;;;;13.70;94.20;98096.09;5025491;28;20213;-67
2021/09/09 01:14:11;;;;;;;14.95;8.18;;;;;;;13.67;94.78;98094.41;5025435;28;20018;-67
2021/09/09 01:16:38;;;;;;;12.40;8.25;;;;;;;13.76;94.48;98088.75;5025381;28;20098;-67
2021/09/09 01:19:05;;;;;;;12.50;8.50;;;;;;;13.76;94.51;98087.91;5025347;28;20037;-67
2021/09/09 01:21:32;;;;;;;16.35;8.07;;;;;;;13.78;94.23;98097.50;5025275;28;20021;-67
2021/09/09 01:23:58;;;;;;;11.40;7.15;;;;;;;13.68;94.37;98089.97;5025185;28;20026;-67
2021/09/09 01:26:27;;;;;;;16.45;8.60;;;;;;;13.81;94.63;98091.22;5025235;28;20080;-67
2021/09/09 01:28:54;;;;;;;13.80;8.32;;;;;;;13.80;94.05;98097.44;5025415;28;20048;-67
2021/09/09 01:31:20;;;;;;;14.65;8.25;;;;;;;13.68;94.07;98084.69;5025157;28;20021;-67
2021/09/09 01:33:46;;;;;;;11.10;7.15;;;;;;;13.69;94.04;98089.03;5025089;28;20022;-67
2021/09/09 01:36:11;;;;;;;13.80;7.55;;;;;;;13.70;94.17;98089.00;5025030;28;20194;-67
2021/09/09 01:38:37;;;;;;;13.95;8.30;;;;;;;13.71;94.26;98084.56;5025001;28;20021;-67
2021/09/09 01:41:03;;;;;;;14.18;7.80;;;;;;;13.69;94.35;98081.13;5024951;28;20248;-67
2021/09/09 01:43:30;;;;;;;13.38;7.57;;;;;;;13.62;94.16;98084.94;5024834;28;20026;-67
2021/09/09 01:45:55;;;;;;;16.05;8.25;;;;;;;13.64;93.86;98083.09;5024863;28;20021;-67
2021/09/09 01:48:21;;;;;;;12.60;7.25;;;;;;;13.62;94.02;98082.28;5024836;28;20032;-67
2021/09/09 01:50:46;;;;;;;15.70;8.18;;;;;;;13.53;94.33;98080.88;5024873;28;20220;-67
2021/09/09 01:53:12;;;;;;;10.57;7.38;;;;;;;13.54;94.11;98082.59;5024732;28;20018;-67
2021/09/09 01:55:37;;;;;;;13.25;7.78;;;;;;;13.56;94.41;98082.53;5024708;28;20044;-67
2021/09/09 01:58:02;;;;;;;12.57;7.90;;;;;;;13.54;94.37;98077.31;5006975;28;20321;-67
2021/09/09 02:00:28;;;;;;;10.65;6.82;;;;;;;13.53;94.36;98077.38;5024626;28;20018;-67
2021/09/09 02:02:53;;;;;;;9.98;7.35;;;;;;;13.51;94.25;98082.72;5024445;28;20026;-67
2021/09/09 02:05:18;;;;;;;11.90;7.53;;;;;;;13.55;94.14;98072.88;5024390;28;20045;-67
2021/09/09 02:07:44;;;;;;;11.63;7.70;;;;;;;13.44;93.44;98069.81;5024546;28;20094;-67
2021/09/09 02:10:10;;;;;;;13.32;7.10;;;;;;;13.38;93.58;98067.41;5024469;28;20018;-67
2021/09/09 02:12:35;;;;;;;13.07;7.88;;;;;;;13.36;94.39;98069.25;5024447;28;20364;-67
2021/09/09 02:15:01;;;;;;;12.35;7.28;;;;;;;13.33;93.96;98077.28;5024373;28;20245;-67
2021/09/09 02:17:27;;;;;;;11.57;8.02;;;;;;;13.37;94.57;98074.47;5024392;28;20021;-67
2021/09/09 02:19:52;;;;;;;12.65;8.95;;;;;;;13.27;94.23;98077.53;5024309;28;20029;-67
2021/09/09 02:22:18;;;;;;;14.43;8.73;;;;;;;13.02;95.42;98073.19;5006659;28;20221;-67
2021/09/09 02:24:46;;;;;;;12.07;6.97;;;;;;;13.18;95.16;98077.88;5024240;28;20021;-67
2021/09/09 02:27:13;;;;;;;13.82;7.20;;;;;;;13.16;94.07;98075.28;5024233;28;20025;-67
2021/09/09 02:29:38;;;;;;;15.77;7.30;;;;;;;13.20;94.50;98076.06;5024215;28;20022;-67
2021/09/09 02:32:04;;;;;;;12.32;7.38;;;;;;;13.14;94.33;98078.94;5024477;28;20080;-67
2021/09/09 02:34:30;;;;;;;14.73;8.30;;;;;;;13.09;93.92;98078.25;5024168;28;20137;-67
2021/09/09 02:36:55;;;;;;;12.82;7.97;;;;;;;13.14;94.32;98081.56;5024121;28;20024;-67
2021/09/09 02:39:20;;;;;;;14.93;7.55;;;;;;;12.98;93.93;98082.09;5024064;28;20101;-67
2021/09/09 02:41:46;;;;;;;12.30;7.20;;;;;;;12.96;94.63;98078.69;5024099;28;20208;-67
2021/09/09 02:44:11;;;;;;;10.82;7.80;;;;;;;13.03;94.35;98074.91;5023997;28;20033;-67
2021/09/09 02:46:36;;;;;;;13.52;7.70;;;;;;;12.96;94.31;98078.69;5024004;28;20025;-67
2021/09/09 02:49:03;;;;;;;13.35;7.38;;;;;;;12.94;94.55;98075.22;5024051;28;20093;-67
2021/09/09 02:51:29;;;;;;;13.70;7.82;;;;;;;12.85;95.01;98075.56;5023954;28;20064;-67
2021/09/09 02:53:54;;;;;;;14.02;7.97;;;;;;;12.73;94.95;98075.16;5023968;28;20018;-67
2021/09/09 02:56:20;;;;;;;15.13;8.57;;;;;;;12.82;95.17;98070.41;5023950;28;20021;-67
2021/09/09 02:58:45;;;;;;;13.00;6.93;;;;;;;12.74;94.00;98069.84;5024331;28;20049;-67
2021/09/09 03:01:12;;;;;;;10.75;7.10;;;;;;;12.82;94.06;98075.69;5023890;28;20022;-67
2021/09/09 03:03:37;;;;;;;16.80;7.35;;;;;;;12.80;94.25;98077.53;5023618;28;20101;-67
2021/09/09 03:06:03;;;;;;;10.77;6.72;;;;;;;12.82;94.18;98073.03;5023868;28;20030;-67
2021/09/09 03:08:28;;;;;;;13.20;7.88;;;;;;;12.81;94.69;98066.03;5024834;28;20025;-67
2021/09/09 03:10:54;;;;;;;18.48;8.15;;;;;;;12.84;94.44;98063.28;5027769;28;20026;-67
2021/09/09 03:13:19;;;;;;;11.93;7.40;;;;;;;12.79;94.19;98064.38;5027704;28;20336;-67
2021/09/09 03:15:45;;;;;;;20.02;9.73;;;;;;;12.72;94.36;98063.72;5027702;28;20033;-67
2021/09/09 03:18:10;;;;;;;13.18;8.20;;;;;;;12.76;94.30;98070.63;5027645;28;20089;-67
2021/09/09 03:20:36;;;;;;;15.15;8.30;;;;;;;12.66;94.54;98074.50;5027651;28;20225;-67
2021/09/09 03:23:01;;;;;;;14.60;7.95;;;;;;;12.67;94.72;98060.41;5027434;28;20100;-67
2021/09/09 03:25:26;;;;;;;13.07;7.72;;;;;;;12.62;94.39;98062.34;5027472;28;20034;-67
2021/09/09 03:27:52;;;;;;;11.82;7.47;;;;;;;12.59;94.87;98062.47;5027441;28;20053;-67
2021/09/09 03:30:17;;;;;;;12.48;7.85;;;;;;;12.59;94.78;98059.81;5027427;28;20038;-67
2021/09/09 03:32:43;;;;;;;16.85;8.05;;;;;;;12.56;94.88;98062.56;5027381;28;20018;-67
2021/09/09 03:35:08;;;;;;;13.35;8.00;;;;;;;12.63;94.82;98061.44;5027368;28;20340;-67
2021/09/09 03:37:34;;;;;;;12.52;6.90;;;;;;;12.65;94.42;98061.38;5027269;28;20069;-67
2021/09/09 03:39:59;;;;;;;13.45;7.72;;;;;;;12.65;94.46;98067.53;5027244;28;20032;-67
2021/09/09 03:42:25;;;;;;;12.65;8.13;;;;;;;12.61;94.69;98054.47;5027060;28;20033;-67
2021/09/09 03:44:50;;;;;;;12.30;7.97;;;;;;;12.49;94.20;98061.06;5027116;28;20256;-67
2021/09/09 03:47:16;;;;;;;15.98;7.85;;;;;;;12.52;94.61;98063.59;5027343;28;20032;-67
2021/09/09 03:49:41;;;;;;;14.50;6.78;;;;;;;12.46;94.28;98069.09;5027025;28;20277;-67
2021/09/09 03:52:07;;;;;;;9.95;7.30;;;;;;;12.49;94.78;98062.84;5026999;28;20068;-67
2021/09/09 03:54:32;;;;;;;16.15;8.25;;;;;;;12.47;94.76;98073.44;5026946;28;20045;-67
2021/09/09 03:56:57;;;;;;;15.65;7.95;;;;;;;12.45;94.74;98069.16;5026896;28;20073;-67
2021/09/09 03:59:23;;;;;;;10.93;7.38;;;;;;;12.46;94.77;98069.09;5026857;28;20026;-67
2021/09/09 04:01:48;;;;;;;14.05;7.55;;;;;;;12.47;94.30;98065.53;5026800;28;20072;-67
2021/09/09 04:04:14;;;;;;;12.65;8.85;;;;;;;12.31;94.00;98061.72;5026444;28;20034;-67
2021/09/09 04:06:39;;;;;;;12.43;7.50;;;;;;;12.28;94.36;98072.38;5026729;28;20092;-67
2021/09/09 04:09:04;;;;;;;15.02;7.95;;;;;;;12.34;94.45;98069.53;5026681;28;20033;-67
2021/09/09 04:11:30;;;;;;;12.45;7.85;;;;;;;12.35;94.55;98073.03;5026652;28;20049;-67
2021/09/09 04:13:55;;;;;;;14.25;8.07;;;;;;;12.19;94.16;98064.81;5026601;28;20022;-67
2021/09/09 04:16:21;;;;;;;12.95;7.72;;;;;;;12.28;94.53;98067.09;5026578;28;20217;-67
2021/09/09 04:18:46;;;;;;;9.98;7.00;;;;;;;12.34;94.91;98064.25;5026521;28;20089;-67
2021/09/09 04:21:12;;;;;;;11.00;7.40;;;;;;;12.22;94.35;98067.31;5025147;28;20270;-67
2021/09/09 04:23:37;;;;;;;12.02;7.43;;;;;;;12.23;94.71;98069.06;5026348;28;20247;-67
2021/09/09 04:26:03;;;;;;;12.35;7.82;;;;;;;12.23;94.68;98058.50;5026336;28;20216;-67
2021/09/09 04:28:28;;;;;;;14.43;8.10;;;;;;;12.15;94.39;98057.91;5026343;28;20032;-67
2021/09/09 04:30:53;;;;;;;13.77;8.15;;;;;;;12.17;94.52;98064.00;5026274;28;20198;-67
2021/09/09 04:33:19;;;;;;;10.38;7.10;;;;;;;12.22;94.44;98067.31;5026216;28;20266;-67
2021/09/09 04:35:44;;;;;;;13.02;7.32;;;;;;;12.18;94.75;98060.44;5026440;28;20021;-67
2021/09/09 04:38:10;;;;;;;13.65;7.43;;;;;;;12.15;94.34;98062.34;5026157;28;20325;-67
2021/09/09 04:40:35;;;;;;;9.60;6.47;;;;;;;12.14;94.67;98063.22;5026137;28;20108;-67
2021/09/09 04:43:00;;;;;;;12.48;7.38;;;;;;;12.12;94.74;98065.06;5025994;28;20030;-67
2021/09/09 04:45:26;;;;;;;13.38;7.93;;;;;;;12.11;94.63;98064.19;5026001;28;20068;-67
2021/09/09 04:47:52;;;;;;;11.43;7.25;;;;;;;12.14;94.44;98064.09;5025977;28;20030;-67
2021/09/09 04:50:17;;;;;;;9.75;7.35;;;;;;;12.17;93.99;98071.91;5025931;28;20022;-67
2021/09/09 04:52:43;;;;;;;12.68;7.82;;;;;;;12.03;94.02;98060.97;5025870;28;20018;-67
2021/09/09 04:55:09;;;;;;;9.75;7.18;;;;;;;11.92;94.37;98063.09;5026080;28;20037;-67
2021/09/09 04:57:35;;;;;;;15.45;7.45;;;;;;;12.06;94.77;98063.47;5025802;28;20021;-67
2021/09/09 05:00:00;;;;;;;10.38;6.40;;;;;;;12.12;94.62;98059.78;5025715;28;20217;-67
2021/09/09 05:02:26;;;;;;;10.25;7.35;;;;;;;12.03;94.33;98066.25;5025556;28;20026;-67
2021/09/09 05:04:51;;;;;;;10.95;7.97;;;;;;;12.03;94.61;98071.53;5025414;28;20062;-67
2021/09/09 05:07:16;;;;;;;9.50;6.43;;;;;;;12.11;94.55;98069.47;5025641;28;20072;-67
2021/09/09 05:09:42;;;;;;;13.52;7.72;;;;;;;12.10;95.00;98067.75;5025570;28;20079;-67
2021/09/09 05:12:07;;;;;;;16.40;7.32;;;;;;;12.09;95.13;98079.19;5025507;28;20037;-67
2021/09/09 05:14:35;;;;;;;11.88;7.63;;;;;;;12.24;94.91;98076.06;5025444;28;20026;-67
2021/09/09 05:17:00;;;;;;;11.45;7.80;;;;;;;12.29;95.05;98078.53;5025641;28;20209;-67
2021/09/09 05:19:26;;;;;;;12.48;7.20;;;;;;;12.33;94.64;98081.00;5025375;28;20025;-67
2021/09/09 05:21:52;;;;;;;11.05;6.97;;;;;;;12.34;94.29;98082.72;5025319;28;20026;-67
2021/09/09 05:24:17;;;;;;;11.68;8.10;;;;;;;12.29;94.63;98079.41;5025203;28;20052;-67
2021/09/09 05:26:43;;;;;;;13.23;8.82;;;;;;;12.29;95.17;98084.69;5025268;28;20190;-67
2021/09/09 05:29:09;;;;;;;12.93;7.82;;;;;;;12.40;94.67;98087.78;5025240;28;20025;-67
2021/09/09 05:31:34;;;;;;;11.55;7.53;;;;;;;12.51;94.51;98085.66;5024703;28;20029;-67
2021/09/09 05:33:59;;;;;;;13.35;7.13;;;;;;;12.58;94.27;98091.56;5025103;28;20017;-67
2021/09/09 05:36:25;;;;;;;10.77;7.53;;;;;;;12.67;93.89;98089.47;5025073;28;20025;-67
2021/09/09 05:38:50;;;;;;;15.13;7.55;;;;;;;12.90;93.46;98091.25;5025001;28;20030;-67
2021/09/09 05:41:16;;;;;;;10.63;6.88;;;;;;;13.19;93.00;98087.56;5025030;28;20342;-67
2021/09/09 05:43:41;;;;;;;11.93;6.95;;;;;;;13.34;91.82;98085.16;5024852;28;20030;-67
2021/09/09 05:46:07;;;;;;;10.20;5.70;;;;;;;13.76;90.73;98093.19;5024906;28;20045;-67
2021/09/09 05:48:32;;;;;;;10.65;6.70;;;;;;;14.02;89.53;98095.63;5024864;28;20044;-67
2021/09/09 05:50:58;;;;;;;8.65;6.32;;;;;;;14.43;87.36;98095.63;5024809;28;20030;-67
2021/09/09 05:53:23;;;;;;;10.43;6.50;;;;;;;14.85;85.50;98100.84;5024772;28;20028;-67
2021/09/09 05:55:48;;;;;;;13.43;6.43;;;;;;;15.13;84.30;98101.31;5024714;28;20021;-67
2021/09/09 05:58:14;;;;;;;9.45;5.40;;;;;;;15.43;83.89;98089.31;5024742;28;20336;-67
2021/09/09 06:00:39;;;;;;;11.65;6.30;;;;;;;15.66;82.96;98107.63;5024622;28;20076;-67
2021/09/09 06:03:05;;;;;;;11.20;5.40;;;;;;;16.01;81.54;98098.81;5024447;28;20022;-67
2021/09/09 06:05:34;;;;;;;9.07;5.80;;;;;;;16.20;80.86;98096.97;5024438;28;20108;-67
2021/09/09 06:08:00;;;;;;;8.98;5.88;;;;;;;16.38;79.37;98096.03;5024550;28;20344;-65
2021/09/09 06:10:25;;;;;;;8.95;5.85;;;;;;;16.48;79.96;98101.75;5024486;28;20025;-65
2021/09/09 06:12:50;;;;;;;8.57;5.57;;;;;;;16.75;79.11;98103.88;5024451;28;20018;-65
2021/09/09 06:15:16;;;;;;;6.82;5.38;;;;;;;17.15;78.56;98103.47;5024459;28;20021;-65
2021/09/09 06:17:41;;;;;;;14.82;6.47;;;;;;;17.67;77.39;98103.31;5024394;28;20359;-65
2021/09/09 06:20:07;;;;;;;9.02;5.93;;;;;;;17.87;76.38;98109.22;5024369;28;20022;-65
2021/09/09 06:22:33;;;;;;;9.13;6.10;;;;;;;18.27;75.51;98100.66;5024166;28;20033;-65
2021/09/09 06:24:58;;;;;;;12.38;5.53;;;;;;;18.46;75.63;98103.13;5024315;28;20068;-65
2021/09/09 06:27:24;;;;;;;9.63;5.95;;;;;;;18.77;75.16;98109.19;5024507;28;20026;-65
2021/09/09 06:29:49;;;;;;;10.30;5.20;;;;;;;19.09;73.41;98107.25;5024262;28;20194;-65
2021/09/09 06:32:15;;;;;;;10.68;6.32;;;;;;;19.01;73.33;98106.84;5024238;28;20022;-65
2021/09/09 06:34:40;;;;;;;12.32;5.15;;;;;;;19.56;72.91;98115.84;5024281;28;20049;-65
2021/09/09 06:37:05;;;;;;;8.20;5.55;;;;;;;20.15;71.23;98110.19;5024177;28;20021;-65
2021/09/09 06:39:31;;;;;;;9.43;5.80;;;;;;;20.42;70.34;98103.03;5024139;28;20029;-65
2021/09/09 06:41:56;;;;;;;8.05;5.30;;;;;;;21.03;70.42;98116.63;5006590;28;20085;-65
2021/09/09 06:44:22;;;;;;;11.13;5.97;;;;;;;21.54;69.30;98117.47;5023229;28;20022;-65
2021/09/09 06:46:47;;;;;;;13.48;6.57;;;;;;;21.65;69.49;98114.03;5024119;28;20034;-65
2021/09/09 06:49:12;;;;;;;11.90;6.78;;;;;;;21.94;70.34;98120.84;5024062;28;20026;-65
2021/09/09 06:51:39;;;;;;;8.90;6.00;;;;;;;22.54;67.97;98113.63;5024018;28;20217;-65
2021/09/09 06:54:05;;;;;;;10.20;5.95;;;;;;;23.08;67.91;98118.31;5024010;28;20333;-65
2021/09/09 06:56:31;;;;;;;9.68;6.25;;;;;;;23.74;66.92;98117.53;5006477;28;20025;-65
2021/09/09 06:58:57;;;;;;;10.90;6.63;;;;;;;24.09;66.98;98118.25;5024204;28;20360;-66
2021/09/09 07:01:23;;;;;;;14.27;5.95;;;;;;;23.50;68.17;98132.91;5023971;28;20026;-66
2021/09/09 07:03:48;;;;;;;9.32;5.82;;;;;;;23.25;68.49;98135.81;5006108;28;20053;-66
2021/09/09 07:06:14;;;;;;;11.23;6.30;;;;;;;23.79;67.54;98126.06;5023957;28;20018;-66
2021/09/09 07:08:40;;;;;;;9.38;6.40;;;;;;;24.56;66.68;98125.97;5023822;28;20025;-66
2021/09/09 07:11:05;;;;;;;11.00;5.55;;;;;;;25.37;62.55;98131.56;5023823;28;20021;-66
2021/09/09 07:13:31;;;;;;;7.90;5.38;;;;;;;25.00;64.11;98133.00;5023778;28;20028;-66
2021/09/09 07:16:00;;;;;;;10.02;5.78;;;;;;;25.15;64.04;98131.66;5023785;28;20025;-66
2021/09/09 07:18:27;;;;;;;10.05;6.22;;;;;;;25.25;64.76;98146.06;5023715;28;20033;-66
2021/09/09 07:20:53;;;;;;;9.27;6.07;;;;;;;25.67;61.77;98139.66;5023730;28;20025;-66
2021/09/09 07:23:18;;;;;;;10.82;5.82;;;;;;;25.17;62.14;98145.88;5023639;28;20028;-66
2021/09/09 07:25:44;;;;;;;12.63;6.55;;;;;;;24.38;65.63;98146.31;5023734;28;20289;-66
2021/09/09 07:28:10;;;;;;;9.02;6.10;;;;;;;24.05;66.78;98143.69;5023648;28;20029;-66
2021/09/09 07:30:36;;;;;;;10.95;6.82;;;;;;;23.57;68.04;98147.56;5023714;28;20026;-66
2021/09/09 07:33:03;;;;;;;18.40;6.45;;;;;;;23.40;67.55;98149.88;5023659;28;20371;-66
2021/09/09 07:35:29;;;;;;;15.18;7.00;;;;;;;23.90;67.43;98149.41;5023646;28;20025;-66
2021/09/09 07:37:54;;;;;;;13.60;6.50;;;;;;;23.89;67.02;98156.59;5023621;28;20068;-66
2021/09/09 07:40:20;;;;;;;10.30;6.82;;;;;;;23.79;67.45;98152.97;5023573;28;20341;-66
2021/09/09 07:42:46;;;;;;;11.18;6.28;;;;;;;23.63;68.37;98160.53;5023501;28;20221;-66
2021/09/09 07:45:12;;;;;;;11.63;6.45;;;;;;;23.62;69.06;98166.88;5023551;28;20064;-66
2021/09/09 07:47:37;;;;;;;14.88;6.63;;;;;;;23.50;69.34;98162.47;5023529;28;20317;-66
2021/09/09 07:50:05;;;;;;;12.35;6.47;;;;;;;23.26;70.63;98164.41;5023474;28;20033;-66
2021/09/09 07:52:31;;;;;;;16.42;6.57;;;;;;;23.09;71.80;98175.53;5023475;28;20024;-66
2021/09/09 07:54:56;;;;;;;12.48;6.82;;;;;;;22.81;72.62;98167.91;5007495;28;20030;-66
2021/09/09 07:57:21;;;;;;;12.93;6.70;;;;;;;22.50;73.90;98163.13;5027092;28;20049;-66
2021/09/09 07:59:47;;;;;;;19.60;7.90;;;;;;;22.54;75.05;98167.28;5026913;28;20025;-66
2021/09/09 08:02:12;;;;;;;12.23;6.50;;;;;;;22.45;74.65;98165.25;5027017;28;20317;-66
2021/09/09 08:04:37;;;;;;;9.98;6.55;;;;;;;22.40;75.31;98179.00;5026573;28;20210;-66
2021/09/09 08:07:03;;;;;;;13.75;7.18;;;;;;;22.47;74.76;98171.38;5026754;28;20021;-65
2021/09/09 08:09:28;;;;;;;9.63;7.00;;;;;;;22.24;76.60;98177.59;5026747;28;20022;-65
2021/09/09 08:11:54;;;;;;;10.95;6.88;;;;;;;22.16;75.72;98175.47;5026664;28;20022;-65
2021/09/09 08:14:19;;;;;;;10.13;7.18;;;;;;;22.14;77.19;98181.88;5026628;28;20257;-65
2021/09/09 08:16:45;;;;;;;19.55;7.82;;;;;;;22.12;78.21;98173.09;5026619;28;20030;-65
2021/09/09 08:19:10;;;;;;;14.95;7.07;;;;;;;22.04;77.97;98170.97;5026579;28;20035;-65
2021/09/09 08:21:37;;;;;;;13.50;7.50;;;;;;;22.12;78.45;98175.78;5026558;28;20221;-65
2021/09/09 08:24:03;;;;;;;16.75;7.45;;;;;;;22.26;78.12;98176.50;5026476;28;20034;-65
2021/09/09 08:26:29;;;;;;;13.57;7.25;;;;;;;22.37;78.38;98178.38;5026439;28;20025;-65
2021/09/09 08:28:54;;;;;;;11.23;7.35;;;;;;;22.43;78.74;98173.41;5026425;28;20403;-65
2021/09/09 08:31:20;;;;;;;12.68;6.95;;;;;;;22.51;77.47;98167.50;5026360;28;20022;-65
2021/09/09 08:33:45;;;;;;;20.52;8.00;;;;;;;23.15;75.29;98183.13;5026339;28;20017;-65
2021/09/09 08:36:16;;;;;;;14.43;6.90;;;;;;;22.98;76.35;98181.75;5026267;28;20081;-65
2021/09/09 08:38:42;;;;;;;14.90;7.53;;;;;;;23.06;75.75;98183.81;5026232;28;20125;-65
2021/09/09 08:41:07;;;;;;;14.50;6.68;;;;;;;23.47;74.88;98178.84;5026146;28;20056;-65
2021/09/09 08:43:33;;;;;;;15.57;6.85;;;;;;;24.01;72.05;98187.09;5026027;28;20026;-65
2021/09/09 08:46:00;;;;;;;12.38;6.78;;;;;;;24.15;72.78;98187.69;5026023;28;20022;-65
2021/09/09 08:48:27;;;;;;;14.07;7.70;;;;;;;25.53;67.86;98190.38;5008564;28;20224;-65
2021/09/09 08:50:53;;;;;;;13.13;6.68;;;;;;;25.24;69.36;98195.53;5025957;28;20190;-65
2021/09/09 08:53:19;;;;;;;13.85;6.93;;;;;;;24.89;69.01;98198.53;5025890;28;20025;-65
2021/09/09 08:55:44;;;;;;;11.48;7.00;;;;;;;24.73;69.53;98200.78;5025858;28;20028;-65
2021/09/09 08:58:10;;;;;;;13.27;7.82;;;;;;;24.49;71.41;98210.84;5025828;28;20283;-65
2021/09/09 09:00:36;;;;;;;13.43;7.13;;;;;;;24.37;71.21;98214.56;5025768;28;20022;-65
2021/09/09 09:03:01;;;;;;;10.63;7.10;;;;;;;24.15;71.99;98221.78;5025541;28;20251;-65
2021/09/09 09:05:27;;;;;;;15.23;7.28;;;;;;;23.67;74.26;98222.97;5025296;28;20041;-65
2021/09/09 09:08:00;;;;;;;10.32;7.00;;;;;;;23.70;74.97;98226.28;5025115;28;20018;-65
2021/09/09 09:10:26;;;;;;;14.05;7.22;;;;;;;23.58;75.10;98235.28;5025609;28;20022;-65
2021/09/09 09:12:52;;;;;;;14.10;7.25;;;;;;;23.45;74.49;98229.16;5025477;28;20128;-65
2021/09/09 09:15:32;;;;;;;12.60;7.00;;;;;;;23.19;75.81;98232.94;5025469;28;20029;-65
2021/09/09 09:18:02;;;;;;;10.95;7.43;;;;;;;23.18;76.09;98233.91;5025472;28;20093;-65
2021/09/09 09:20:50;;;;;;;10.70;7.10;;;;;;;23.05;76.27;98230.44;5025462;28;20032;-65
2021/09/09 09:23:20;;;;;;;15.07;7.38;;;;;;;22.88;77.93;98233.56;5025528;28;20048;-65
2021/09/09 09:26:05;;;;;;;16.08;6.88;;;;;;;22.73;77.30;98237.38;5025389;28;20096;-65
2021/09/09 09:28:54;;;;;;;19.27;7.75;;;;;;;22.73;77.61;98240.94;5025290;28;20026;-65
2021/09/09 09:31:31;;;;;;;13.90;7.53;;;;;;;22.53;78.94;98243.38;5025279;28;20018;-65
2021/09/09 09:33:58;;;;;;;14.18;7.47;;;;;;;22.59;78.67;98242.91;5025422;28;20302;-65
2021/09/09 09:36:28;;;;;;;12.50;6.93;;;;;;;22.67;79.83;98251.25;5025098;28;20214;-65
2021/09/09 09:39:09;;;;;;;10.25;6.90;;;;;;;22.63;77.85;98252.44;5025118;28;20021;-65
2021/09/09 09:41:36;;;;;;;12.23;7.10;;;;;;;22.56;78.70;98251.19;5025068;28;20048;-65
2021/09/09 09:44:06;;;;;;;11.10;6.47;;;;;;;22.70;78.22;98259.06;5025094;28;20055;-65
2021/09/09 09:46:41;;;;;;;11.48;6.97;;;;;;;22.70;79.45;98261.75;5024989;28;20018;-65
2021/09/09 09:49:18;;;;;;;11.45;6.40;;;;;;;22.80;78.23;98252.03;5024957;28;20049;-65
2021/09/09 09:51:46;;;;;;;12.05;6.47;;;;;;;22.65;78.11;98247.84;5024879;28;20030;-65
2021/09/09 09:54:14;;;;;;;13.85;6.97;;;;;;;22.91;78.04;98244.06;5024755;28;20064;-65
2021/09/09 09:56:41;;;;;;;10.57;6.22;;;;;;;23.14;77.01;98243.19;5024693;28;20068;-65
2021/09/09 09:59:06;;;;;;;9.50;6.38;;;;;;;23.42;77.45;98250.88;5024956;28;20273;-65
2021/09/09 10:01:33;;;;;;;9.55;5.50;;;;;;;23.78;76.15;98241.78;5024664;28;20022;-65
2021/09/09 10:04:11;;;;;;;12.95;6.35;;;;;;;23.81;75.55;98254.97;5024371;28;20067;-65
2021/09/09 10:06:37;;;;;;;13.48;5.72;;;;;;;23.80;74.87;98248.75;5024592;28;20117;-65
2021/09/09 10:09:04;;;;;;;12.65;6.60;;;;;;;23.75;76.13;98250.94;5024828;28;20022;-65
2021/09/09 10:11:31;;;;;;;15.13;6.05;;;;;;;23.75;75.88;98250.94;5024508;28;20320;-65
2021/09/09 10:13:58;;;;;;;9.70;6.00;;;;;;;23.89;75.49;98248.00;5024494;28;20045;-65
2021/09/09 10:16:27;;;;;;;10.18;5.78;;;;;;;24.11;74.43;98245.38;5024473;28;20036;-65
2021/09/09 10:18:52;;;;;;;10.05;5.90;;;;;;;24.87;71.59;98234.66;5024373;28;20025;-65
2021/09/09 10:21:41;;;;;;;10.43;5.78;;;;;;;25.27;69.99;98239.25;5024394;28;20026;-65
2021/09/09 10:24:20;;;;;;;11.18;5.47;;;;;;;25.33;68.74;98231.63;5024553;28;20052;-65
2021/09/09 10:26:48;;;;;;;9.20;5.03;;;;;;;25.84;67.80;98227.19;5024337;28;20026;-65
2021/09/09 10:29:41;;;;;;;13.85;5.80;;;;;;;26.13;66.25;98231.72;5024258;28;20337;-65
2021/09/09 10:32:08;;;;;;;9.38;5.13;;;;;;;25.75;67.33;98222.59;5024260;28;20025;-65
2021/09/09 10:34:33;;;;;;;6.22;4.28;;;;;;;26.44;66.52;98227.16;5024217;28;20030;-65
2021/09/09 10:36:59;;;;;;;11.68;5.22;;;;;;;27.13;64.28;98220.75;5006705;28;20096;-65
2021/09/09 10:39:33;;;;;;;9.35;4.70;;;;;;;27.29;63.09;98226.47;5024209;28;20030;-65
2021/09/09 10:41:59;;;;;;;7.15;4.50;;;;;;;26.73;65.40;98230.81;5024097;28;20052;-65
2021/09/09 10:44:27;;;;;;;11.13;4.50;;;;;;;26.18;66.03;98225.94;5024065;28;20030;-65
2021/09/09 10:46:53;;;;;;;9.25;4.50;;;;;;;26.42;66.71;98231.84;5024057;28;20317;-65
2021/09/09 10:49:21;;;;;;;7.00;4.03;;;;;;;26.65;64.54;98231.53;5024096;28;20076;-65
2021/09/09 10:52:08;;;;;;;10.68;4.22;;;;;;;26.36;66.12;98229.69;5024014;28;20089;-65
2021/09/09 10:55:07;;;;;;;6.97;4.35;;;;;;;26.53;65.23;98221.78;5023991;28;20026;-65
2021/09/09 10:57:33;;;;;;;5.43;3.90;;;;;;;26.29;63.69;98217.75;5024009;28;20337;-65
2021/09/09 11:00:02;;;;;;;7.20;4.05;;;;;;;25.51;66.38;98228.25;5024195;28;20034;-65
2021/09/09 11:02:28;;;;;;;7.78;3.80;;;;;;;25.48;66.77;98214.16;5023839;28;20025;-65
2021/09/09 11:05:01;;;;;;;7.82;3.58;;;;;;;25.10;67.84;98226.34;5023783;28;20052;-65
2021/09/09 11:07:28;;;;;;;11.90;3.80;;;;;;;24.74;67.57;98215.94;5023921;28;20029;-65
2021/09/09 11:10:10;;;;;;;7.57;3.50;;;;;;;24.40;68.82;98225.06;5023837;28;20026;-65
2021/09/09 11:12:40;;;;;;;6.15;3.35;;;;;;;24.14;70.44;98223.59;5023788;28;20217;-65
2021/09/09 11:15:11;;;;;;;6.40;3.35;;;;;;;24.19;71.94;98221.41;5023861;28;20025;-65
2021/09/09 11:17:37;;;;;;;7.25;3.50;;;;;;;24.15;70.22;98219.97;5023796;28;20317;-65
2021/09/09 11:20:11;;;;;;;6.32;3.53;;;;;;;24.07;71.79;98222.38;5024025;28;20367;-65
2021/09/09 11:22:39;;;;;;;7.15;3.50;;;;;;;23.83;71.35;98223.47;5023714;28;20024;-65
2021/09/09 11:25:17;;;;;;;6.70;3.33;;;;;;;23.75;73.60;98226.75;5023721;28;20022;-65